Thacker, West Virginia
Current Conditions -  °F | °C
As of 5:15 PM on Monday 26 Jan 2015 (Local Time) from KPBX Reporting Station
Overcast Overcast  
Wind Chill: 18°   Ceiling: 700
Heat Index: 25°   Visibility: 10mi
Dew Point: 23°   Wind: 6mph
Humidity: 93%   Direction: 270°W
Pressure: 29.84"   Gusts: NA
Location:  37.59°N, 82.13°W
Report Text: KPBX 262215Z AUTO 27005KT 10SM OVC007 M04/M05 A2984 RMK AO2 T10401050
Loading
Personal Weather Stations






























Interactive Weather Map New forecast layout! Learn more

10-Day Weather Forecast

Advertisements
Track Severe Weather on mobile